Terminal Aerodrome Forecast
Issued by NWS Glasgow, MT

Home | Current Version | Previous Version | Text Only | Print | Product List | Glossary On
Versions: 1 2 3 4 5 6 7 8 9 10 11 12 13 14 15 16 17 18 19
601
FTUS45 KGGW 231135
TAFGGW
TAF
KGGW 231135Z 2312/2412 06005KT P6SM OVC010
     FM232200 36006KT P6SM OVC015
     FM240000 36005KT P6SM OVC020
     FM240600 33006KT P6SM OVC015=

USA.gov is the U.S. government's official web portal to all federal, state and local government web resources and services.